Historique des mesures à Cassis (13260), France
Quotidien Résumé Avril 25, 2017 Unités:  Métrique    US   Métrique/US
« Précédent (Jour)
Suivant (Jour) »
Quotidien Hebdomadaire Mensuel Annuel Période au choix
  Maximum: Minimum: Moyenne:
Température: TemperatureC °C 12.8 °C 15.7 °C
Point de rosée: DewpointC °C 8.4 °C 9.9 °C
Humidité: Humidity % 57 % 65 %
Vitesse du vent: 0 km/h 0 km/h 3.9 km/h
Rafales: 0 km/h - -
Vent:- - SSE
Pression: PressurehPa hPa 1005.6 hPa -
Précipitations: 0.0 mm    
Historical Graphs
 
 
Mesures pour : Avril 25, 2017
Heure Temperature Point de rosée Pression Vent Vitesse du vent Rafales Humidité Pluie (par heure) Conditions
TemperatureC °C DewpointC °C PressurehPa hPa Calm     Humidity % HourlyPrecipMM mm SoftwareType W/m2
00:10 14.0 °C 9.0 °C 1013.4 hPa Calm     72 % 0.0 mm open2300-1.11 W/m2
01:10 13.0 °C 8.4 °C 1013.4 hPa Calm     74 % 0.0 mm open2300-1.11 W/m2
02:10 13.3 °C 8.9 °C 1012.8 hPa Calm   2.3 km/h 75 % 0.0 mm open2300-1.11 W/m2
03:11 13.8 °C 9.4 °C 1012.1 hPa WSW 7.6 km/h 7.6 km/h 75 % 0.0 mm open2300-1.11 W/m2
04:10 12.8 °C 8.4 °C 1011.7 hPa Calm     75 % 0.0 mm open2300-1.11 W/m2
05:10 13.2 °C 9.0 °C 1011.4 hPa Calm     76 % 0.0 mm open2300-1.11 W/m2
06:11 13.8 °C 9.6 °C 1010.7 hPa SE 4.2 km/h 4.7 km/h 76 % 0.0 mm open2300-1.11 W/m2
07:11 13.8 °C 9.6 °C 1010.7 hPa Calm   9.3 km/h 76 % 0.0 mm open2300-1.11 W/m2
08:11 15.6 °C 11.0 °C 1011.1 hPa Calm   4.2 km/h 74 % 0.0 mm open2300-1.11 W/m2
09:10 15.8 °C 11.0 °C 1010.4 hPa South 3.4 km/h 8.9 km/h 73 % 0.0 mm open2300-1.11 W/m2
10:10 16.9 °C 11.4 °C 1010.0 hPa SSE 9.3 km/h 11.6 km/h 70 % 0.0 mm open2300-1.11 W/m2
12:10 21.1 °C 13.1 °C 1010.0 hPa SSE 19.6 km/h 19.6 km/h 60 % 0.0 mm open2300-1.11 W/m2
13:10 21.4 °C 12.8 °C 1009.7 hPa SE 4.2 km/h 9.3 km/h 58 % 0.0 mm open2300-1.11 W/m2
14:10 21.4 °C 12.5 °C 1009.0 hPa SE 6.9 km/h 7.6 km/h 57 % 0.0 mm open2300-1.11 W/m2
15:11 20.6 °C 11.8 °C 1008.4 hPa ESE 3.4 km/h 4.7 km/h 57 % 0.0 mm open2300-1.11 W/m2
17:10 19.3 °C 12.1 °C 1007.0 hPa South 6.9 km/h 6.9 km/h 63 % 0.0 mm open2300-1.11 W/m2
18:10 18.3 °C 10.6 °C 1006.7 hPa ESE 5.6 km/h 5.6 km/h 61 % 0.0 mm open2300-1.11 W/m2
19:10 17.6 °C 10.7 °C 1006.3 hPa ESE 5.6 km/h 5.6 km/h 64 % 0.0 mm open2300-1.11 W/m2
20:11 17.1 °C 10.4 °C 1005.6 hPa Calm     65 % 0.0 mm open2300-1.11 W/m2
21:11 16.4 °C 9.8 °C 1005.6 hPa SE 8 km/h 8 km/h 65 % 0.0 mm open2300-1.11 W/m2
22:10 15.9 °C 9.1 °C 1006.0 hPa Calm   3.4 km/h 64 % 0.0 mm open2300-1.11 W/m2
23:10 15.9 °C 9.3 °C 1006.0 hPa South 2.3 km/h 2.9 km/h 65 % 0.0 mm open2300-1.11 W/m2
Observations météo à CASSIS
WU-History script by Weather Underground - 1 mb